Minto, Canada
Current Conditions -  °F | °C
As of 4:00 PM on Friday 24 Oct 2014 (Local Time) from CYBR Reporting Station
Scattered Clouds Scattered Clouds  
Wind Chill: 63°   Ceiling: Unl
Heat Index: 63°   Visibility: 15mi
Dew Point: 32°   Wind: 28mph
Humidity: 32%   Direction: 290°WNW
Pressure: 29.73"   Gusts: 36mph
Location:  49.4°N, 100.02°W
Report Text: CYBR 242100Z 29024G31KT 15SM FEW050 SCT250 17/00 A2973 RMK CU1CI3 CU TR SLP080 DENSITY ALT 2000FT
Loading
Personal Weather Stations






























Interactive Weather Map New forecast layout! Learn more

10-Day Weather Forecast

Advertisements
Track Severe Weather on mobile